Terminal Aerodrome Forecast
Issued by NWS

Home | Current Version | Previous Version | Text Only | Print | Product List | Glossary On
Versions: 1 2 3 4 5 6 7 8 9 10 11 12 13 14 15 16
141
FTUS43 KOAX 272111 AAA
TAFSNY
TAF AMD
KSNY 272111Z 2721/2818 15010KT P6SM VCTS SCT070CB BKN110
      TEMPO 2722/2724 VRB25G35KT -TSRA SCT050CB BKN100
     FM280200 33012KT P6SM SCT120=

USA.gov is the U.S. government's official web portal to all federal, state and local government web resources and services.